Time;durP1;ratioP1;P1;durP2;ratioP2;P2;SDS_P1;SDS_P2;PMS_P1;PMS_P2;Temp;Humidity;BMP_temperature;BMP_pressure;BME280_temperature;BME280_humidity;BME280_pressure;Samples;Min_cycle;Max_cycle;Signal;HPM_P1;HPM_P2
2024/03/10 00:01:23;;;;;;;48.33;28.52;;;5.50;99.90;;;;;;5028804;28;20176;-73
2024/03/10 00:03:49;;;;;;;47.03;27.63;;;5.50;99.90;;;;;;5033596;28;20252;-74
2024/03/10 00:06:15;;;;;;;50.83;29.63;;;5.60;99.90;;;;;;5033190;28;20196;-74
2024/03/10 00:08:42;;;;;;;49.80;30.20;;;5.50;99.90;;;;;;5030457;28;20274;-73
2024/03/10 00:11:09;;;;;;;49.33;30.00;;;5.50;99.90;;;;;;5034708;28;20278;-73
2024/03/10 00:13:36;;;;;;;49.78;27.98;;;5.50;99.90;;;;;;5031971;28;20258;-72
2024/03/10 00:16:01;;;;;;;52.97;29.48;;;5.60;99.90;;;;;;5033878;28;20272;-73
2024/03/10 00:18:27;;;;;;;38.30;21.38;;;5.60;99.90;;;;;;5034686;28;20282;-73
2024/03/10 00:20:56;;;;;;;50.83;28.35;;;5.50;99.90;;;;;;5035617;28;20204;-72
2024/03/10 00:23:24;;;;;;;46.50;28.88;;;5.50;99.90;;;;;;5035415;28;20691;-72
2024/03/10 00:25:50;;;;;;;49.55;27.58;;;5.50;99.90;;;;;;5023620;28;21144;-72
2024/03/10 00:28:16;;;;;;;50.88;30.25;;;5.50;99.90;;;;;;5027993;28;20231;-73
2024/03/10 00:30:41;;;;;;;50.95;30.38;;;5.50;99.90;;;;;;5029514;28;20222;-73
2024/03/10 00:33:07;;;;;;;49.25;28.55;;;5.50;99.90;;;;;;5037310;28;20183;-74
2024/03/10 00:35:36;;;;;;;46.63;27.50;;;5.50;99.90;;;;;;5035841;28;20202;-74
2024/03/10 00:38:02;;;;;;;50.67;28.73;;;5.50;99.90;;;;;;5034057;28;20285;-75
2024/03/10 00:40:28;;;;;;;50.03;30.25;;;5.50;99.90;;;;;;5033823;28;20191;-74
2024/03/10 00:42:54;;;;;;;51.00;29.10;;;5.50;99.90;;;;;;5025842;28;20775;-71
2024/03/10 00:45:22;;;;;;;50.10;29.15;;;5.40;99.90;;;;;;5035639;28;20187;-74
2024/03/10 00:47:49;;;;;;;51.80;29.63;;;5.40;99.90;;;;;;5034486;28;20219;-71
2024/03/10 00:50:15;;;;;;;52.40;30.30;;;5.40;99.90;;;;;;5032138;28;20705;-73
2024/03/10 00:52:41;;;;;;;56.47;29.83;;;5.40;99.90;;;;;;5035596;28;20580;-72
2024/03/10 00:55:07;;;;;;;51.03;29.52;;;5.40;99.90;;;;;;5033731;28;20191;-74
2024/03/10 00:57:33;;;;;;;50.38;29.40;;;5.40;99.90;;;;;;5006556;28;20211;-74
2024/03/10 00:59:59;;;;;;;50.47;28.88;;;5.40;99.90;;;;;;5032139;28;20235;-71
2024/03/10 01:02:26;;;;;;;51.58;29.50;;;5.40;99.90;;;;;;5034255;28;20194;-74
2024/03/10 01:04:52;;;;;;;46.55;28.85;;;5.40;99.90;;;;;;5028198;28;20196;-71
2024/03/10 01:07:18;;;;;;;48.72;27.02;;;5.40;99.90;;;;;;5033742;28;20237;-73
2024/03/10 01:09:44;;;;;;;51.25;29.50;;;5.50;99.90;;;;;;5034701;28;20226;-73
2024/03/10 01:12:10;;;;;;;49.25;28.25;;;5.50;99.90;;;;;;5037040;28;20206;-75
2024/03/10 01:14:36;;;;;;;48.45;29.55;;;5.50;99.90;;;;;;5031611;28;20187;-73
2024/03/10 01:17:04;;;;;;;53.13;29.08;;;5.60;99.90;;;;;;5034255;28;20187;-74
2024/03/10 01:19:37;;;;;;;50.10;27.33;;;5.60;99.90;;;;;;5033967;28;20187;-73
2024/03/10 01:22:03;;;;;;;50.03;29.58;;;5.60;99.90;;;;;;5034271;28;20195;-75
2024/03/10 01:24:29;;;;;;;47.15;26.52;;;5.60;99.90;;;;;;5033715;28;20187;-73
2024/03/10 01:26:57;;;;;;;48.05;27.67;;;5.70;99.90;;;;;;5033169;28;20282;-74
2024/03/10 01:29:23;;;;;;;47.75;27.90;;;5.70;99.90;;;;;;5033876;28;20219;-73
2024/03/10 01:31:49;;;;;;;48.58;28.95;;;5.70;99.90;;;;;;5032786;28;20202;-73
2024/03/10 01:34:19;;;;;;;50.40;27.73;;;5.70;99.90;;;;;;5029864;28;20197;-74
2024/03/10 01:36:46;;;;;;;52.88;27.95;;;5.70;99.90;;;;;;5032476;28;20188;-75
2024/03/10 01:39:11;;;;;;;45.58;28.80;;;5.70;99.90;;;;;;5035583;28;20656;-73
2024/03/10 01:41:37;;;;;;;50.60;29.25;;;5.70;99.90;;;;;;5026768;28;20191;-74
2024/03/10 01:44:05;;;;;;;47.42;26.90;;;5.80;99.90;;;;;;5032859;28;20296;-73
2024/03/10 01:46:36;;;;;;;48.28;28.42;;;5.70;99.90;;;;;;5007758;28;20195;-73
2024/03/10 01:49:03;;;;;;;46.75;28.30;;;5.80;99.90;;;;;;5034550;28;20393;-75
2024/03/10 01:51:30;;;;;;;45.03;24.48;;;5.80;99.90;;;;;;5020475;28;20214;-73
2024/03/10 01:53:57;;;;;;;48.85;27.67;;;5.80;99.90;;;;;;5031003;28;20195;-73
2024/03/10 01:56:24;;;;;;;46.83;26.52;;;5.80;99.90;;;;;;5031981;28;20314;-73
2024/03/10 01:58:52;;;;;;;42.90;26.15;;;5.80;99.90;;;;;;5028954;28;20286;-74
2024/03/10 02:01:21;;;;;;;49.42;27.30;;;5.80;99.90;;;;;;5033103;28;20659;-73
2024/03/10 02:03:49;;;;;;;44.90;24.30;;;5.80;99.90;;;;;;5026135;28;20279;-75
2024/03/10 02:06:15;;;;;;;48.08;26.85;;;5.90;99.90;;;;;;5032350;28;20192;-73
2024/03/10 02:08:42;;;;;;;48.90;28.73;;;5.80;99.90;;;;;;5030749;28;20668;-73
2024/03/10 02:11:10;;;;;;;50.03;28.88;;;5.70;99.90;;;;;;5036920;28;20218;-71
2024/03/10 02:13:36;;;;;;;51.13;29.17;;;5.80;99.90;;;;;;5031732;28;20250;-72
2024/03/10 02:16:03;;;;;;;49.45;28.15;;;5.70;99.90;;;;;;5030403;28;20214;-73
2024/03/10 02:18:32;;;;;;;47.33;27.50;;;5.70;99.90;;;;;;5028083;28;20195;-73
2024/03/10 02:20:59;;;;;;;54.33;29.25;;;5.80;99.90;;;;;;5027785;28;21066;-74
2024/03/10 02:23:46;;;;;;;48.45;26.05;;;5.70;99.90;;;;;;5032760;28;20195;-74
2024/03/10 02:26:15;;;;;;;46.05;28.60;;;5.70;99.90;;;;;;5027709;28;20211;-72
2024/03/10 02:28:57;;;;;;;45.55;27.88;;;5.80;99.90;;;;;;5033681;28;20234;-74
2024/03/10 02:47:52;;;;;;;51.15;30.33;;;5.80;99.90;;;;;;5034843;28;20608;-72
2024/03/10 02:50:19;;;;;;;50.85;28.15;;;5.80;99.90;;;;;;5035349;28;20294;-72
2024/03/10 02:52:46;;;;;;;47.35;26.17;;;5.80;99.90;;;;;;5037948;28;20195;-71
2024/03/10 02:55:12;;;;;;;51.03;28.30;;;5.80;99.90;;;;;;5038339;28;20304;-71
2024/03/10 02:57:38;;;;;;;50.35;30.48;;;5.80;99.90;;;;;;5036881;28;20175;-72
2024/03/10 03:00:09;;;;;;;49.15;29.70;;;5.70;99.90;;;;;;5037081;28;20190;-71
2024/03/10 03:02:35;;;;;;;42.45;23.98;;;5.70;99.90;;;;;;5028186;28;20780;-73
2024/03/10 03:05:01;;;;;;;55.38;31.92;;;5.70;99.90;;;;;;5039872;28;20291;-74
2024/03/10 03:07:26;;;;;;;49.50;30.00;;;5.70;99.90;;;;;;5038059;28;20188;-73
2024/03/10 03:09:52;;;;;;;57.42;31.70;;;5.70;99.90;;;;;;5038666;28;20530;-72
2024/03/10 03:12:18;;;;;;;51.70;28.90;;;5.70;99.90;;;;;;5034741;28;20653;-73
2024/03/10 03:14:44;;;;;;;56.00;33.15;;;5.70;99.90;;;;;;5013644;28;20191;-74
2024/03/10 03:17:10;;;;;;;60.53;31.63;;;5.70;99.90;;;;;;5033395;28;20609;-75
2024/03/10 03:19:39;;;;;;;56.85;33.15;;;5.70;99.90;;;;;;5037239;28;20667;-72
2024/03/10 03:22:06;;;;;;;58.25;33.20;;;5.70;99.90;;;;;;5037876;28;20260;-74
2024/03/10 03:24:32;;;;;;;60.50;33.83;;;5.60;99.90;;;;;;5038162;28;20203;-73
2024/03/10 03:26:58;;;;;;;53.30;32.83;;;5.60;99.90;;;;;;5036215;28;20192;-72
2024/03/10 03:29:24;;;;;;;55.50;32.90;;;5.70;99.90;;;;;;5036109;28;20183;-73
2024/03/10 03:31:50;;;;;;;58.65;34.28;;;5.60;99.90;;;;;;5034255;28;20226;-74
2024/03/10 03:34:17;;;;;;;57.00;34.03;;;5.70;99.90;;;;;;5034746;28;20211;-73
2024/03/10 03:36:43;;;;;;;57.10;32.88;;;5.70;99.90;;;;;;5027065;28;20191;-73
2024/03/10 03:39:11;;;;;;;63.67;36.67;;;5.70;99.90;;;;;;5030602;28;20188;-73
2024/03/10 03:41:37;;;;;;;59.53;36.10;;;5.70;99.90;;;;;;5021375;28;20242;-75
2024/03/10 03:44:10;;;;;;;61.67;36.70;;;5.70;99.90;;;;;;5035483;28;20631;-72
2024/03/10 03:46:35;;;;;;;63.15;36.85;;;5.70;99.90;;;;;;5029607;28;20191;-72
2024/03/10 03:49:01;;;;;;;66.78;38.28;;;5.70;99.90;;;;;;5035341;28;20659;-75
2024/03/10 03:51:27;;;;;;;64.70;38.08;;;5.60;99.90;;;;;;5033507;28;21474;-73
2024/03/10 03:53:53;;;;;;;58.22;34.85;;;5.60;99.90;;;;;;5038028;28;20675;-73
2024/03/10 03:56:20;;;;;;;62.40;37.05;;;5.60;99.90;;;;;;5033063;28;20195;-73
2024/03/10 03:58:46;;;;;;;63.08;37.47;;;5.60;99.90;;;;;;5034370;28;20287;-73
2024/03/10 04:01:12;;;;;;;61.45;36.55;;;5.60;99.90;;;;;;5036934;28;20192;-73
2024/03/10 04:03:40;;;;;;;61.70;36.78;;;5.60;99.90;;;;;;5029523;28;20204;-73
2024/03/10 04:06:06;;;;;;;68.03;37.70;;;5.70;99.90;;;;;;5035754;28;20278;-73
2024/03/10 04:08:32;;;;;;;63.28;37.88;;;5.70;99.90;;;;;;5036100;28;20279;-73
2024/03/10 04:10:58;;;;;;;61.13;36.42;;;5.70;99.90;;;;;;5033707;28;20233;-72
2024/03/10 04:13:24;;;;;;;64.07;37.75;;;5.60;99.90;;;;;;5027232;28;20195;-73
2024/03/10 04:15:50;;;;;;;64.10;38.38;;;5.60;99.90;;;;;;5034356;28;20195;-73
2024/03/10 04:18:16;;;;;;;65.68;36.78;;;5.60;99.90;;;;;;5047301;28;20275;-73
2024/03/10 04:20:45;;;;;;;69.80;37.58;;;5.70;99.90;;;;;;5009732;28;20195;-74
2024/03/10 04:23:11;;;;;;;61.92;37.45;;;5.70;99.90;;;;;;5034841;28;20191;-72
2024/03/10 04:25:36;;;;;;;64.97;38.00;;;5.70;99.90;;;;;;5032457;28;20191;-73
2024/03/10 04:28:03;;;;;;;64.10;37.72;;;5.60;99.90;;;;;;5038393;28;21119;-73
2024/03/10 04:30:28;;;;;;;64.63;36.75;;;5.60;99.90;;;;;;5035871;28;20218;-73
2024/03/10 04:32:54;;;;;;;62.80;36.70;;;5.60;99.90;;;;;;5011233;28;20201;-73
2024/03/10 04:35:20;;;;;;;61.35;36.20;;;5.60;99.90;;;;;;5034708;28;20191;-72
2024/03/10 04:37:46;;;;;;;67.05;38.85;;;5.50;99.90;;;;;;5033581;28;20183;-72
2024/03/10 04:40:13;;;;;;;60.78;37.22;;;5.60;99.90;;;;;;5011340;28;20229;-73
2024/03/10 04:42:39;;;;;;;67.60;36.05;;;5.60;99.90;;;;;;5031510;28;20230;-72
2024/03/10 04:45:06;;;;;;;68.10;38.88;;;5.60;99.90;;;;;;5036933;28;20187;-73
2024/03/10 04:47:33;;;;;;;62.92;36.97;;;5.60;99.90;;;;;;5033539;28;20241;-72
2024/03/10 04:49:59;;;;;;;67.38;38.83;;;5.60;99.90;;;;;;5013220;28;20755;-73
2024/03/10 04:52:25;;;;;;;65.50;38.75;;;5.60;99.90;;;;;;5032198;28;20175;-71
2024/03/10 04:54:51;;;;;;;63.83;38.58;;;5.60;99.90;;;;;;5036647;28;20186;-72
2024/03/10 04:57:19;;;;;;;68.22;38.22;;;5.60;99.90;;;;;;5028484;28;20206;-72
2024/03/10 04:59:45;;;;;;;70.10;38.95;;;5.60;99.90;;;;;;5030940;28;20241;-72
2024/03/10 05:02:11;;;;;;;66.72;38.53;;;5.60;99.90;;;;;;5034477;28;20203;-73
2024/03/10 05:04:37;;;;;;;68.40;40.65;;;5.60;99.90;;;;;;5034236;28;20187;-73
2024/03/10 05:07:04;;;;;;;68.28;38.22;;;5.60;99.90;;;;;;5037333;28;20651;-73
2024/03/10 05:09:30;;;;;;;70.00;39.70;;;5.50;99.90;;;;;;5032507;28;20196;-74
2024/03/10 05:11:56;;;;;;;69.40;38.65;;;5.50;99.90;;;;;;5029188;28;20187;-73
2024/03/10 05:14:23;;;;;;;71.10;39.67;;;5.50;99.90;;;;;;5031172;28;20199;-73
2024/03/10 05:16:49;;;;;;;67.65;39.25;;;5.50;99.90;;;;;;5035379;28;20396;-73
2024/03/10 05:19:14;;;;;;;66.40;37.28;;;5.50;99.90;;;;;;5009370;28;20265;-73
2024/03/10 05:21:46;;;;;;;67.65;40.22;;;5.40;99.90;;;;;;5033571;28;20219;-73
2024/03/10 05:24:13;;;;;;;62.38;36.22;;;5.40;99.90;;;;;;5027565;28;21106;-74
2024/03/10 05:26:39;;;;;;;69.20;40.10;;;5.40;99.90;;;;;;5032705;28;20190;-72
2024/03/10 05:29:04;;;;;;;69.72;39.13;;;5.40;99.90;;;;;;5034609;28;20226;-73
2024/03/10 05:31:32;;;;;;;74.25;41.05;;;5.40;99.90;;;;;;5035471;28;20557;-72
2024/03/10 05:33:59;;;;;;;67.35;39.08;;;5.40;99.90;;;;;;5031962;28;20188;-73
2024/03/10 05:36:29;;;;;;;72.20;40.75;;;5.40;99.90;;;;;;5032514;28;20583;-72
2024/03/10 05:38:55;;;;;;;68.68;37.50;;;5.40;99.90;;;;;;5025178;28;20192;-73
2024/03/10 05:41:21;;;;;;;71.30;39.67;;;5.40;99.90;;;;;;5035762;28;20183;-72
2024/03/10 05:43:47;;;;;;;67.75;40.60;;;5.30;99.90;;;;;;5032468;28;21319;-72
2024/03/10 05:46:13;;;;;;;73.60;39.70;;;5.30;99.90;;;;;;5034756;28;21056;-74
2024/03/10 05:48:40;;;;;;;67.55;39.65;;;5.30;99.90;;;;;;5031986;28;20697;-72
2024/03/10 05:51:10;;;;;;;70.25;37.78;;;5.20;99.90;;;;;;5030584;28;20327;-72
2024/03/10 05:53:37;;;;;;;72.93;40.20;;;5.20;99.90;;;;;;5010922;28;20231;-72
2024/03/10 05:56:07;;;;;;;67.18;38.55;;;5.20;99.90;;;;;;5033519;28;20245;-72
2024/03/10 05:58:38;;;;;;;68.80;37.70;;;5.20;99.90;;;;;;5020362;28;20623;-74
2024/03/10 06:01:05;;;;;;;73.63;41.83;;;5.20;99.90;;;;;;5024032;28;20210;-72
2024/03/10 06:03:31;;;;;;;75.18;39.65;;;5.10;99.90;;;;;;5037165;28;20195;-73
2024/03/10 06:05:57;;;;;;;75.72;40.55;;;5.10;99.90;;;;;;5036361;28;20203;-72
2024/03/10 06:08:23;;;;;;;69.28;38.78;;;5.10;99.90;;;;;;5036410;28;20183;-72
2024/03/10 06:10:50;;;;;;;73.03;40.67;;;5.10;99.90;;;;;;5036614;28;20628;-75
2024/03/10 06:13:16;;;;;;;71.10;40.38;;;5.00;99.90;;;;;;5036679;28;20214;-72
2024/03/10 06:15:42;;;;;;;78.13;41.80;;;5.10;99.90;;;;;;5035007;28;20325;-73
2024/03/10 06:26:32;;;;;;;70.78;38.95;;;5.00;99.90;;;;;;5035222;28;20223;-74
2024/03/10 06:28:59;;;;;;;74.80;39.60;;;5.10;99.90;;;;;;5042171;28;20332;-72
2024/03/10 06:31:25;;;;;;;74.47;41.20;;;5.10;99.90;;;;;;5035050;28;20619;-71
2024/03/10 06:33:51;;;;;;;77.43;39.55;;;5.10;99.90;;;;;;5032972;28;20195;-75
2024/03/10 06:36:16;;;;;;;71.85;40.75;;;5.10;99.90;;;;;;5018975;28;20215;-73
2024/03/10 06:38:43;;;;;;;78.70;38.33;;;5.10;99.90;;;;;;5030066;28;20175;-75
2024/03/10 06:41:10;;;;;;;70.47;41.13;;;5.10;99.90;;;;;;5033535;28;20195;-73
2024/03/10 06:43:39;;;;;;;69.93;40.85;;;5.20;99.90;;;;;;5030311;28;20200;-72
2024/03/10 06:46:08;;;;;;;78.43;41.20;;;5.20;99.90;;;;;;5037146;28;20226;-73
2024/03/10 06:48:37;;;;;;;64.95;36.40;;;5.20;99.90;;;;;;5032179;28;20191;-73
2024/03/10 06:51:03;;;;;;;70.95;38.63;;;5.20;99.90;;;;;;5033458;28;20306;-75
2024/03/10 06:53:30;;;;;;;71.18;39.05;;;5.20;99.90;;;;;;5039070;28;20188;-74
2024/03/10 06:55:58;;;;;;;72.50;38.80;;;5.20;99.90;;;;;;5035055;28;20180;-75
2024/03/10 06:58:24;;;;;;;72.68;41.13;;;5.20;99.90;;;;;;5037544;28;20199;-73
2024/03/10 07:00:50;;;;;;;64.20;37.08;;;5.20;99.90;;;;;;5038023;28;20191;-74
2024/03/10 07:03:18;;;;;;;69.10;39.53;;;5.20;99.90;;;;;;5010876;28;20194;-73
2024/03/10 07:05:44;;;;;;;75.03;40.47;;;5.20;99.90;;;;;;5037422;28;20226;-73
2024/03/10 07:08:11;;;;;;;79.35;43.17;;;5.30;99.90;;;;;;5037662;28;20229;-73
2024/03/10 07:10:37;;;;;;;75.13;40.83;;;5.20;99.90;;;;;;5032743;28;20223;-73
2024/03/10 07:13:08;;;;;;;70.90;40.55;;;5.30;99.90;;;;;;5036271;28;20201;-73
2024/03/10 07:15:34;;;;;;;74.30;42.58;;;5.30;99.90;;;;;;5034361;28;20689;-74
2024/03/10 07:18:00;;;;;;;73.35;42.00;;;5.30;99.90;;;;;;5027890;28;20275;-73
2024/03/10 07:20:26;;;;;;;75.82;40.63;;;5.40;99.90;;;;;;5037407;28;20659;-73
2024/03/10 07:22:53;;;;;;;69.50;38.17;;;5.40;99.90;;;;;;5031715;28;20195;-73
2024/03/10 07:25:20;;;;;;;77.50;41.25;;;5.40;99.90;;;;;;5037553;28;20679;-74
2024/03/10 07:27:46;;;;;;;69.57;39.28;;;5.40;99.90;;;;;;5027188;28;20230;-74
2024/03/10 07:30:12;;;;;;;76.07;40.83;;;5.50;99.90;;;;;;5030343;28;20221;-73
2024/03/10 07:32:38;;;;;;;69.57;40.83;;;5.50;99.90;;;;;;5031621;28;20210;-74
2024/03/10 07:35:05;;;;;;;74.95;42.10;;;5.50;99.90;;;;;;5009487;28;20185;-74
2024/03/10 07:37:31;;;;;;;74.57;40.13;;;5.60;99.90;;;;;;5030144;28;20191;-75
2024/03/10 07:39:56;;;;;;;69.50;38.97;;;5.60;99.90;;;;;;5033717;28;20192;-73
2024/03/10 07:42:23;;;;;;;71.03;40.10;;;5.70;99.90;;;;;;5024801;28;20187;-72
2024/03/10 07:44:49;;;;;;;71.35;41.20;;;5.70;99.90;;;;;;5030010;28;20199;-72
2024/03/10 07:47:15;;;;;;;74.38;40.83;;;5.70;99.90;;;;;;5034085;28;20209;-74
2024/03/10 07:49:41;;;;;;;75.18;39.63;;;5.80;99.90;;;;;;5034529;28;20219;-71
2024/03/10 07:52:07;;;;;;;76.55;42.67;;;5.80;99.90;;;;;;5032189;28;20658;-73
2024/03/10 07:54:33;;;;;;;69.93;39.65;;;5.90;99.90;;;;;;5027165;28;20191;-72
2024/03/10 07:56:59;;;;;;;66.47;37.03;;;6.00;99.90;;;;;;5037700;28;20668;-73
2024/03/10 07:59:25;;;;;;;74.35;42.38;;;6.00;99.90;;;;;;5040378;28;20194;-71
2024/03/10 08:01:51;;;;;;;71.45;41.03;;;6.10;99.90;;;;;;5029198;28;20204;-72
2024/03/10 08:04:20;;;;;;;72.22;40.63;;;6.10;99.90;;;;;;5036257;28;20199;-73
2024/03/10 08:06:46;;;;;;;67.18;40.65;;;6.20;99.90;;;;;;5029254;28;20203;-72
2024/03/10 08:09:15;;;;;;;71.00;42.03;;;6.30;99.90;;;;;;5032445;28;20180;-72
2024/03/10 08:11:44;;;;;;;73.35;40.38;;;6.30;99.90;;;;;;5034450;28;20633;-73
2024/03/10 08:14:10;;;;;;;65.32;38.58;;;6.30;99.90;;;;;;5031438;28;20233;-72
2024/03/10 08:16:37;;;;;;;73.78;40.63;;;6.40;99.90;;;;;;5038590;28;20186;-72
2024/03/10 08:19:03;;;;;;;69.07;41.08;;;6.30;99.90;;;;;;5010947;28;20261;-72
2024/03/10 08:21:29;;;;;;;73.15;39.60;;;6.40;99.90;;;;;;5028679;28;21488;-72
2024/03/10 08:23:55;;;;;;;70.65;40.88;;;6.50;99.90;;;;;;5033933;28;20203;-73
2024/03/10 08:26:22;;;;;;;66.20;37.30;;;6.50;99.90;;;;;;5037656;28;20203;-73
2024/03/10 08:28:48;;;;;;;74.70;42.13;;;6.60;99.90;;;;;;5023583;28;20243;-74
2024/03/10 08:31:16;;;;;;;68.53;41.17;;;6.60;99.90;;;;;;5036497;28;20225;-72
2024/03/10 08:33:42;;;;;;;70.00;39.42;;;6.60;99.90;;;;;;5037418;28;20242;-73
2024/03/10 08:36:08;;;;;;;72.22;40.30;;;6.70;99.90;;;;;;5025685;28;20588;-71
2024/03/10 08:38:36;;;;;;;69.13;39.50;;;6.70;99.90;;;;;;5038079;28;20210;-72
2024/03/10 08:41:04;;;;;;;68.57;40.88;;;6.80;99.90;;;;;;5032083;28;20238;-73
2024/03/10 08:43:31;;;;;;;69.47;39.53;;;6.80;99.90;;;;;;5027036;28;20276;-72
2024/03/10 08:45:57;;;;;;;65.90;38.88;;;6.90;99.90;;;;;;5035862;28;20337;-73
2024/03/10 08:48:23;;;;;;;69.15;39.72;;;7.00;99.90;;;;;;5035770;28;20191;-72
2024/03/10 08:50:50;;;;;;;71.30;41.05;;;7.00;99.90;;;;;;5037708;28;20252;-73
2024/03/10 08:53:16;;;;;;;71.53;41.05;;;7.10;99.90;;;;;;5030053;28;20187;-72
2024/03/10 08:55:44;;;;;;;68.40;40.03;;;7.10;99.90;;;;;;5033757;28;20550;-74
2024/03/10 08:58:11;;;;;;;69.28;39.95;;;7.20;99.90;;;;;;5028249;28;20190;-72
2024/03/10 09:00:38;;;;;;;71.95;40.63;;;7.20;99.90;;;;;;5038869;28;20647;-72
2024/03/10 09:03:04;;;;;;;65.85;38.70;;;7.30;99.90;;;;;;5020513;28;20245;-73
2024/03/10 09:05:31;;;;;;;70.30;40.15;;;7.30;99.90;;;;;;5034790;28;20195;-73
2024/03/10 09:07:57;;;;;;;71.70;41.13;;;7.30;99.90;;;;;;5003503;28;20520;-71
2024/03/10 09:10:25;;;;;;;67.47;38.17;;;7.30;99.90;;;;;;5032678;28;20222;-73
2024/03/10 09:12:54;;;;;;;68.38;38.20;;;7.30;99.90;;;;;;5034214;28;20344;-72
2024/03/10 09:15:21;;;;;;;70.57;41.33;;;7.40;99.90;;;;;;5035408;28;20261;-73
2024/03/10 09:17:47;;;;;;;69.30;40.70;;;7.40;99.90;;;;;;5026136;28;20204;-73
2024/03/10 09:20:14;;;;;;;63.25;38.78;;;7.50;99.90;;;;;;5035792;28;20195;-73
2024/03/10 09:22:40;;;;;;;67.93;40.17;;;7.70;99.90;;;;;;5038462;28;20199;-73
2024/03/10 09:25:12;;;;;;;63.90;40.05;;;7.70;99.90;;;;;;5019655;28;20190;-75
2024/03/10 09:27:40;;;;;;;71.78;41.25;;;7.80;99.90;;;;;;5035414;28;20314;-75
2024/03/10 09:30:08;;;;;;;65.43;38.90;;;7.90;99.90;;;;;;5034670;28;20227;-75
2024/03/10 09:32:34;;;;;;;65.35;37.83;;;8.00;99.90;;;;;;5033836;28;20199;-77
2024/03/10 09:35:01;;;;;;;66.78;41.03;;;8.00;99.90;;;;;;5025821;28;20262;-73
2024/03/10 09:37:30;;;;;;;68.47;40.05;;;8.10;99.90;;;;;;5034779;28;20195;-73
2024/03/10 09:40:17;;;;;;;66.07;38.03;;;8.10;99.90;;;;;;4992298;28;20195;-72
2024/03/10 09:42:43;;;;;;;74.88;40.35;;;8.10;99.90;;;;;;5038821;28;20256;-71
2024/03/10 09:45:19;;;;;;;63.30;38.05;;;8.10;99.90;;;;;;5023088;28;20206;-72
2024/03/10 09:47:49;;;;;;;68.13;40.55;;;8.10;99.90;;;;;;5035162;28;20206;-72
2024/03/10 09:50:23;;;;;;;62.05;36.55;;;8.20;99.90;;;;;;5029090;28;20211;-73
2024/03/10 09:52:54;;;;;;;66.00;40.03;;;8.30;99.90;;;;;;5036594;28;20227;-73
2024/03/10 09:55:20;;;;;;;66.28;40.00;;;8.40;99.90;;;;;;5031465;28;20635;-75
2024/03/10 09:57:53;;;;;;;63.22;39.63;;;8.50;99.90;;;;;;5035804;28;20195;-73
2024/03/10 10:00:31;;;;;;;68.25;40.42;;;8.60;99.90;;;;;;5029502;28;20704;-73
2024/03/10 10:03:07;;;;;;;65.07;39.03;;;8.70;99.90;;;;;;5037780;28;20571;-74
2024/03/10 10:05:39;;;;;;;68.50;40.70;;;8.80;99.90;;;;;;5033497;28;20187;-75
2024/03/10 10:08:10;;;;;;;61.80;38.67;;;8.70;99.90;;;;;;5038212;28;20200;-72
2024/03/10 10:10:52;;;;;;;65.03;37.20;;;8.80;99.90;;;;;;5036773;28;20214;-73
2024/03/10 10:13:26;;;;;;;65.60;38.95;;;8.80;99.90;;;;;;5036752;28;20751;-74
2024/03/10 10:15:53;;;;;;;70.43;41.00;;;8.80;99.90;;;;;;5037225;28;20192;-73
2024/03/10 10:18:21;;;;;;;62.47;39.67;;;8.90;99.90;;;;;;5038410;28;20195;-74
2024/03/10 10:20:51;;;;;;;59.13;37.35;;;9.00;99.90;;;;;;5029530;28;20258;-75
2024/03/10 10:23:23;;;;;;;66.97;38.88;;;9.00;99.90;;;;;;5031483;28;20214;-73
2024/03/10 10:26:10;;;;;;;61.58;38.60;;;9.00;99.90;;;;;;5035877;28;20200;-73
2024/03/10 10:28:41;;;;;;;62.22;40.17;;;9.00;99.90;;;;;;5034638;28;20278;-73
2024/03/10 10:31:18;;;;;;;65.28;38.80;;;9.00;99.90;;;;;;5036377;28;20223;-74
2024/03/10 10:33:45;;;;;;;63.72;38.22;;;9.10;99.90;;;;;;5037829;28;20186;-74
2024/03/10 10:36:12;;;;;;;64.63;39.53;;;9.00;99.90;;;;;;5032401;28;20191;-74
2024/03/10 10:39:00;;;;;;;68.20;39.00;;;9.10;99.90;;;;;;5035454;28;20203;-75
2024/03/10 10:41:29;;;;;;;60.67;39.20;;;9.10;99.90;;;;;;5032887;28;20754;-73
2024/03/10 10:43:57;;;;;;;60.20;36.30;;;9.10;99.90;;;;;;5033970;28;20249;-73
2024/03/10 10:46:24;;;;;;;65.40;39.00;;;9.10;99.90;;;;;;5033660;28;20206;-73
2024/03/10 10:48:50;;;;;;;60.85;37.65;;;9.20;99.90;;;;;;5038899;28;20203;-73
2024/03/10 10:51:17;;;;;;;62.70;39.40;;;9.20;99.90;;;;;;5032286;28;20313;-73
2024/03/10 10:53:43;;;;;;;60.67;39.85;;;9.30;99.90;;;;;;5030954;28;21247;-75
2024/03/10 10:56:11;;;;;;;61.90;38.83;;;9.40;99.90;;;;;;5033769;28;20253;-74
2024/03/10 10:58:37;;;;;;;61.85;38.95;;;9.60;99.90;;;;;;5032948;28;20196;-73
2024/03/10 11:01:04;;;;;;;63.88;38.65;;;9.60;99.90;;;;;;5013730;28;20219;-74
2024/03/10 11:03:40;;;;;;;62.22;39.08;;;9.70;99.90;;;;;;5036443;28;20609;-72
2024/03/10 11:06:06;;;;;;;61.75;37.67;;;9.70;99.90;;;;;;5034774;28;20217;-72
2024/03/10 11:08:33;;;;;;;58.35;36.13;;;9.80;99.90;;;;;;5027245;28;20246;-74
2024/03/10 11:11:01;;;;;;;59.85;37.50;;;9.80;99.90;;;;;;5032306;28;20932;-74
2024/03/10 11:13:27;;;;;;;62.70;37.40;;;9.80;99.90;;;;;;5033586;28;20270;-74
2024/03/10 11:16:11;;;;;;;60.42;38.20;;;9.90;99.90;;;;;;5032515;28;20644;-74
2024/03/10 11:18:41;;;;;;;60.15;38.17;;;9.90;99.90;;;;;;5030459;28;20297;-73
2024/03/10 11:21:17;;;;;;;62.40;38.63;;;10.00;99.90;;;;;;5037049;28;20202;-73
2024/03/10 11:23:50;;;;;;;63.95;38.55;;;10.00;99.90;;;;;;5027503;28;20187;-74
2024/03/10 11:26:20;;;;;;;57.60;37.58;;;10.10;99.90;;;;;;5030980;28;20187;-75
2024/03/10 11:28:53;;;;;;;62.17;36.63;;;10.20;99.90;;;;;;5033852;28;20266;-73
2024/03/10 11:31:35;;;;;;;57.38;38.17;;;10.10;99.90;;;;;;5032992;28;20250;-73
2024/03/10 11:34:04;;;;;;;56.95;36.55;;;10.20;99.90;;;;;;5033586;28;20705;-74
2024/03/10 11:36:38;;;;;;;56.55;36.45;;;10.30;99.90;;;;;;5032865;28;21109;-74
2024/03/10 11:39:05;;;;;;;57.22;36.17;;;10.30;99.90;;;;;;5031077;28;20212;-76
2024/03/10 11:41:32;;;;;;;56.65;35.33;;;10.50;99.90;;;;;;5033079;28;20192;-74
2024/03/10 11:43:59;;;;;;;53.67;35.45;;;10.50;99.90;;;;;;5034590;28;20199;-74
2024/03/10 11:46:35;;;;;;;59.42;35.30;;;10.50;99.90;;;;;;5031551;28;20203;-75
2024/03/10 11:49:02;;;;;;;56.22;36.58;;;10.70;99.90;;;;;;5049008;28;20294;-75
2024/03/10 11:51:30;;;;;;;55.85;35.38;;;10.80;99.90;;;;;;5032534;28;20302;-73
2024/03/10 11:53:56;;;;;;;53.88;35.67;;;10.80;99.90;;;;;;5030000;28;20199;-74
2024/03/10 11:56:23;;;;;;;53.17;35.15;;;10.80;99.90;;;;;;5038908;28;20187;-75
2024/03/10 11:58:51;;;;;;;55.08;35.20;;;10.90;99.90;;;;;;5036558;28;20195;-73
2024/03/10 12:01:17;;;;;;;55.55;37.15;;;10.80;99.90;;;;;;5035710;28;21367;-74
2024/03/10 12:03:49;;;;;;;54.67;34.58;;;10.80;99.90;;;;;;5034866;28;20187;-74
2024/03/10 12:06:16;;;;;;;56.22;35.47;;;10.80;99.90;;;;;;5031672;28;20229;-74
2024/03/10 12:08:42;;;;;;;58.10;35.13;;;10.80;99.90;;;;;;5029384;28;20714;-73
2024/03/10 12:11:13;;;;;;;56.83;36.53;;;10.80;99.90;;;;;;5034896;28;20287;-74
2024/03/10 12:13:42;;;;;;;54.70;34.35;;;10.90;99.90;;;;;;5035815;28;20191;-75
2024/03/10 12:16:08;;;;;;;53.63;34.83;;;10.90;99.90;;;;;;5027492;28;20737;-74
2024/03/10 12:18:43;;;;;;;52.47;35.25;;;11.00;99.90;;;;;;5034584;28;20195;-75
2024/03/10 12:21:17;;;;;;;55.72;35.75;;;11.00;99.90;;;;;;5028420;28;20619;-75
2024/03/10 12:23:45;;;;;;;53.55;34.25;;;11.00;99.90;;;;;;5030524;28;20282;-76
2024/03/10 12:26:13;;;;;;;54.53;36.22;;;11.10;99.90;;;;;;5030044;28;20674;-76
2024/03/10 12:28:43;;;;;;;53.60;36.20;;;11.20;99.90;;;;;;5034939;28;20536;-74
2024/03/10 12:31:15;;;;;;;57.67;36.22;;;11.20;99.90;;;;;;5033734;28;20219;-73
2024/03/10 12:33:49;;;;;;;56.30;35.75;;;11.30;99.90;;;;;;5034665;28;20201;-79
2024/03/10 12:36:17;;;;;;;50.55;34.97;;;11.30;99.90;;;;;;5031861;28;20186;-74
2024/03/10 12:38:44;;;;;;;52.17;34.00;;;11.40;99.90;;;;;;5024648;28;20596;-72
2024/03/10 12:41:23;;;;;;;55.58;34.20;;;11.40;99.90;;;;;;5035760;28;20191;-76
2024/03/10 12:43:49;;;;;;;52.72;32.65;;;11.40;99.90;;;;;;5031610;28;20199;-76
2024/03/10 12:46:17;;;;;;;52.72;34.03;;;11.40;99.90;;;;;;5031060;28;20191;-73
2024/03/10 12:48:47;;;;;;;52.78;34.08;;;11.40;99.90;;;;;;5033695;28;20190;-76
2024/03/10 12:51:14;;;;;;;51.40;33.40;;;11.40;99.90;;;;;;5036973;28;20907;-73
2024/03/10 12:53:40;;;;;;;51.95;33.40;;;11.50;99.90;;;;;;5031140;28;20184;-74
2024/03/10 12:56:12;;;;;;;53.55;34.63;;;11.50;99.90;;;;;;5036655;28;20517;-73
2024/03/10 12:58:39;;;;;;;54.67;35.25;;;11.60;99.90;;;;;;5030622;28;20195;-74
2024/03/10 13:01:05;;;;;;;49.00;31.60;;;11.60;99.90;;;;;;5029190;28;20179;-73
2024/03/10 13:03:33;;;;;;;54.50;34.45;;;11.70;99.90;;;;;;5027004;28;20200;-75